sensor_id;sensor_type;location;lat;lon;timestamp;pressure;altitude;pressure_sealevel;temperature;humidity
17362;BME280;8798;51.938;4.348;2023-06-14T00:00:24;100202.00;;;22.33;40.62
17362;BME280;8798;51.938;4.348;2023-06-14T00:02:54;100213.44;;;22.30;40.35
17362;BME280;8798;51.938;4.348;2023-06-14T00:05:23;100217.97;;;22.25;40.95
17362;BME280;8798;51.938;4.348;2023-06-14T00:07:51;100240.13;;;22.23;40.44
17362;BME280;8798;51.938;4.348;2023-06-14T00:10:21;100240.00;;;22.18;41.03
17362;BME280;8798;51.938;4.348;2023-06-14T00:12:49;100252.25;;;22.16;41.07
17362;BME280;8798;51.938;4.348;2023-06-14T00:15:17;100260.69;;;22.14;41.06
17362;BME280;8798;51.938;4.348;2023-06-14T00:17:44;100268.81;;;22.09;41.36
17362;BME280;8798;51.938;4.348;2023-06-14T00:20:21;100267.88;;;22.03;41.00
17362;BME280;8798;51.938;4.348;2023-06-14T00:22:54;100276.81;;;21.99;41.47
17362;BME280;8798;51.938;4.348;2023-06-14T00:25:26;100272.06;;;21.94;41.31
17362;BME280;8798;51.938;4.348;2023-06-14T00:27:59;100282.63;;;21.90;41.50
17362;BME280;8798;51.938;4.348;2023-06-14T00:30:27;100284.22;;;21.86;41.80
17362;BME280;8798;51.938;4.348;2023-06-14T00:32:58;100297.50;;;21.83;41.88
17362;BME280;8798;51.938;4.348;2023-06-14T00:35:26;100309.75;;;21.80;42.02
17362;BME280;8798;51.938;4.348;2023-06-14T00:37:57;100315.13;;;21.75;41.87
17362;BME280;8798;51.938;4.348;2023-06-14T00:40:28;100295.53;;;21.66;42.23
17362;BME280;8798;51.938;4.348;2023-06-14T00:42:58;100301.72;;;21.62;42.29
17362;BME280;8798;51.938;4.348;2023-06-14T00:45:27;100303.25;;;21.58;42.27
17362;BME280;8798;51.938;4.348;2023-06-14T00:47:58;100315.50;;;21.55;42.53
17362;BME280;8798;51.938;4.348;2023-06-14T00:50:29;100320.63;;;21.52;42.47
17362;BME280;8798;51.938;4.348;2023-06-14T00:52:59;100310.88;;;21.44;42.52
17362;BME280;8798;51.938;4.348;2023-06-14T00:55:30;100317.88;;;21.40;43.16
17362;BME280;8798;51.938;4.348;2023-06-14T00:57:59;100324.81;;;21.36;43.31
17362;BME280;8798;51.938;4.348;2023-06-14T01:00:28;100318.41;;;21.30;43.32
17362;BME280;8798;51.938;4.348;2023-06-14T01:02:56;100331.47;;;21.28;43.17
17362;BME280;8798;51.938;4.348;2023-06-14T01:05:29;100340.97;;;21.25;43.59
17362;BME280;8798;51.938;4.348;2023-06-14T01:08:13;100354.28;;;21.22;43.46
17362;BME280;8798;51.938;4.348;2023-06-14T01:10:53;100358.75;;;21.16;43.73
17362;BME280;8798;51.938;4.348;2023-06-14T01:13:29;100344.38;;;21.09;43.66
17362;BME280;8798;51.938;4.348;2023-06-14T01:15:59;100341.50;;;21.04;44.21
17362;BME280;8798;51.938;4.348;2023-06-14T01:18:28;100336.53;;;21.01;43.85
17362;BME280;8798;51.938;4.348;2023-06-14T01:20:58;100342.69;;;20.96;44.25
17362;BME280;8798;51.938;4.348;2023-06-14T01:23:30;100359.31;;;20.95;44.57
17362;BME280;8798;51.938;4.348;2023-06-14T01:25:59;100392.91;;;20.95;44.33
17362;BME280;8798;51.938;4.348;2023-06-14T01:28:31;100398.59;;;20.94;44.34
17362;BME280;8798;51.938;4.348;2023-06-14T01:31:03;100399.28;;;20.89;44.67
17362;BME280;8798;51.938;4.348;2023-06-14T01:33:33;100399.16;;;20.84;44.95
17362;BME280;8798;51.938;4.348;2023-06-14T01:36:08;100407.00;;;20.80;44.96
17362;BME280;8798;51.938;4.348;2023-06-14T01:38:40;100411.22;;;20.76;45.21
17362;BME280;8798;51.938;4.348;2023-06-14T01:41:19;100406.47;;;20.72;45.28
17362;BME280;8798;51.938;4.348;2023-06-14T01:43:50;100416.78;;;20.70;45.31
17362;BME280;8798;51.938;4.348;2023-06-14T01:46:19;100423.53;;;20.67;45.46
17362;BME280;8798;51.938;4.348;2023-06-14T01:48:48;100422.53;;;20.61;45.48
17362;BME280;8798;51.938;4.348;2023-06-14T01:51:16;100416.94;;;20.56;45.71
17362;BME280;8798;51.938;4.348;2023-06-14T01:53:45;100422.00;;;20.53;45.72
17362;BME280;8798;51.938;4.348;2023-06-14T01:56:13;100420.16;;;20.47;45.89
17362;BME280;8798;51.938;4.348;2023-06-14T01:58:41;100412.91;;;20.40;46.08
17362;BME280;8798;51.938;4.348;2023-06-14T02:01:10;100399.34;;;20.34;46.08
17362;BME280;8798;51.938;4.348;2023-06-14T02:03:39;100405.47;;;20.29;46.19
17362;BME280;8798;51.938;4.348;2023-06-14T02:06:07;100391.88;;;20.23;46.26
17362;BME280;8798;51.938;4.348;2023-06-14T02:08:39;100382.13;;;20.15;46.48
17362;BME280;8798;51.938;4.348;2023-06-14T02:11:09;100385.31;;;20.12;46.77
17362;BME280;8798;51.938;4.348;2023-06-14T02:13:38;100387.06;;;20.06;46.90
17362;BME280;8798;51.938;4.348;2023-06-14T02:16:05;100393.19;;;20.02;46.95
17362;BME280;8798;51.938;4.348;2023-06-14T02:18:37;100391.94;;;19.97;47.30
17362;BME280;8798;51.938;4.348;2023-06-14T02:21:08;100396.22;;;19.93;47.07
17362;BME280;8798;51.938;4.348;2023-06-14T02:23:36;100387.88;;;19.88;47.19
17362;BME280;8798;51.938;4.348;2023-06-14T02:26:04;100386.84;;;19.83;47.59
17362;BME280;8798;51.938;4.348;2023-06-14T02:28:38;100402.63;;;19.81;47.84
17362;BME280;8798;51.938;4.348;2023-06-14T02:31:08;100409.31;;;19.78;47.66
17362;BME280;8798;51.938;4.348;2023-06-14T02:33:36;100414.41;;;19.74;47.72
17362;BME280;8798;51.938;4.348;2023-06-14T02:36:05;100406.88;;;19.70;47.99
17362;BME280;8798;51.938;4.348;2023-06-14T02:38:40;100415.50;;;19.67;47.91
17362;BME280;8798;51.938;4.348;2023-06-14T02:41:10;100415.31;;;19.62;48.13
17362;BME280;8798;51.938;4.348;2023-06-14T02:43:39;100414.91;;;19.58;47.99
17362;BME280;8798;51.938;4.348;2023-06-14T02:46:07;100426.25;;;19.55;48.26
17362;BME280;8798;51.938;4.348;2023-06-14T02:48:38;100425.88;;;19.51;48.33
17362;BME280;8798;51.938;4.348;2023-06-14T02:51:08;100430.09;;;19.47;48.34
17362;BME280;8798;51.938;4.348;2023-06-14T02:53:40;100438.72;;;19.44;48.58
17362;BME280;8798;51.938;4.348;2023-06-14T02:56:08;100444.38;;;19.43;48.53
17362;BME280;8798;51.938;4.348;2023-06-14T02:58:36;100457.38;;;19.41;48.80
17362;BME280;8798;51.938;4.348;2023-06-14T03:01:10;100471.25;;;19.39;48.87
17362;BME280;8798;51.938;4.348;2023-06-14T03:03:48;100477.97;;;19.37;48.88
17362;BME280;8798;51.938;4.348;2023-06-14T03:06:19;100474.81;;;19.33;48.98
17362;BME280;8798;51.938;4.348;2023-06-14T03:08:53;100471.94;;;19.28;49.05
17362;BME280;8798;51.938;4.348;2023-06-14T03:11:28;100476.16;;;19.24;48.87
17362;BME280;8798;51.938;4.348;2023-06-14T03:13:56;100473.84;;;19.21;48.89
17362;BME280;8798;51.938;4.348;2023-06-14T03:16:27;100478.09;;;19.17;49.11
17362;BME280;8798;51.938;4.348;2023-06-14T03:18:59;100491.91;;;19.15;49.40
17362;BME280;8798;51.938;4.348;2023-06-14T03:21:28;100495.69;;;19.14;49.43
17362;BME280;8798;51.938;4.348;2023-06-14T03:23:58;100514.13;;;19.12;49.31
17362;BME280;8798;51.938;4.348;2023-06-14T03:26:27;100523.34;;;19.11;49.49
17362;BME280;8798;51.938;4.348;2023-06-14T03:28:58;100533.41;;;19.10;49.52
17362;BME280;8798;51.938;4.348;2023-06-14T03:31:28;100549.97;;;19.09;49.58
17362;BME280;8798;51.938;4.348;2023-06-14T03:33:59;100547.66;;;19.06;49.70
17362;BME280;8798;51.938;4.348;2023-06-14T03:36:28;100557.91;;;19.04;49.47
17362;BME280;8798;51.938;4.348;2023-06-14T03:38:56;100553.97;;;19.00;49.74
17362;BME280;8798;51.938;4.348;2023-06-14T03:41:24;100553.56;;;18.96;49.95
17362;BME280;8798;51.938;4.348;2023-06-14T03:43:58;100555.06;;;18.92;50.06
17362;BME280;8798;51.938;4.348;2023-06-14T03:46:28;100562.34;;;18.91;50.08
17362;BME280;8798;51.938;4.348;2023-06-14T03:48:56;100584.38;;;18.90;50.20
17362;BME280;8798;51.938;4.348;2023-06-14T03:51:28;100588.75;;;18.91;49.87
17362;BME280;8798;51.938;4.348;2023-06-14T03:53:58;100609.69;;;18.90;50.05
17362;BME280;8798;51.938;4.348;2023-06-14T03:56:46;100618.06;;;18.89;50.34
17362;BME280;8798;51.938;4.348;2023-06-14T03:59:14;100630.84;;;18.88;49.99
17362;BME280;8798;51.938;4.348;2023-06-14T04:01:43;100634.81;;;18.86;50.24
17362;BME280;8798;51.938;4.348;2023-06-14T04:04:16;100637.16;;;18.82;50.14
17362;BME280;8798;51.938;4.348;2023-06-14T04:06:48;100640.91;;;18.81;50.42
17362;BME280;8798;51.938;4.348;2023-06-14T04:09:16;100654.75;;;18.80;50.50
17362;BME280;8798;51.938;4.348;2023-06-14T04:11:49;100669.38;;;18.79;50.29
17362;BME280;8798;51.938;4.348;2023-06-14T04:14:18;100672.09;;;18.79;50.36
17362;BME280;8798;51.938;4.348;2023-06-14T04:16:49;100692.03;;;18.79;50.49
17362;BME280;8798;51.938;4.348;2023-06-14T04:19:17;100702.03;;;18.79;50.21
17362;BME280;8798;51.938;4.348;2023-06-14T04:21:46;100715.66;;;18.79;50.44
17362;BME280;8798;51.938;4.348;2023-06-14T04:24:14;100713.53;;;18.74;50.49
17362;BME280;8798;51.938;4.348;2023-06-14T04:26:43;100712.28;;;18.70;50.60
17362;BME280;8798;51.938;4.348;2023-06-14T04:29:13;100715.00;;;18.70;50.54
17362;BME280;8798;51.938;4.348;2023-06-14T04:31:43;100720.00;;;18.66;50.28
17362;BME280;8798;51.938;4.348;2023-06-14T04:34:13;100730.28;;;18.64;50.83
17362;BME280;8798;51.938;4.348;2023-06-14T04:36:43;100747.22;;;18.66;50.60
17362;BME280;8798;51.938;4.348;2023-06-14T04:39:16;100762.72;;;18.66;50.73
17362;BME280;8798;51.938;4.348;2023-06-14T04:41:48;100773.59;;;18.66;50.84
17362;BME280;8798;51.938;4.348;2023-06-14T04:44:23;100802.09;;;18.70;50.82
17362;BME280;8798;51.938;4.348;2023-06-14T04:46:57;100822.63;;;18.73;50.68
17362;BME280;8798;51.938;4.348;2023-06-14T04:49:29;100836.22;;;18.73;51.06
17362;BME280;8798;51.938;4.348;2023-06-14T04:52:00;100842.50;;;18.73;51.07
17362;BME280;8798;51.938;4.348;2023-06-14T04:54:35;100858.81;;;18.73;50.76
17362;BME280;8798;51.938;4.348;2023-06-14T04:57:10;100872.25;;;18.75;51.08
17362;BME280;8798;51.938;4.348;2023-06-14T04:59:40;100885.66;;;18.76;51.31
17362;BME280;8798;51.938;4.348;2023-06-14T05:02:16;100903.69;;;18.77;51.24
17362;BME280;8798;51.938;4.348;2023-06-14T05:04:51;100933.84;;;18.82;50.95
17362;BME280;8798;51.938;4.348;2023-06-14T05:07:26;100964.22;;;18.86;51.29
17362;BME280;8798;51.938;4.348;2023-06-14T05:10:03;100977.63;;;18.87;51.03
17362;BME280;8798;51.938;4.348;2023-06-14T05:12:31;101004.25;;;18.92;50.94
17362;BME280;8798;51.938;4.348;2023-06-14T05:15:00;101012.41;;;18.92;51.06
17362;BME280;8798;51.938;4.348;2023-06-14T05:17:28;101034.84;;;18.94;51.29
17362;BME280;8798;51.938;4.348;2023-06-14T05:19:59;101062.09;;;19.01;51.37
17362;BME280;8798;51.938;4.348;2023-06-14T05:22:29;101084.31;;;19.04;51.34
17362;BME280;8798;51.938;4.348;2023-06-14T05:24:59;101126.25;;;19.10;51.34
17362;BME280;8798;51.938;4.348;2023-06-14T05:27:27;101152.66;;;19.16;51.27
17362;BME280;8798;51.938;4.348;2023-06-14T05:29:59;101178.28;;;19.22;51.16
17362;BME280;8798;51.938;4.348;2023-06-14T05:32:29;101200.50;;;19.25;51.32
17362;BME280;8798;51.938;4.348;2023-06-14T05:35:00;101221.88;;;19.28;51.25
17362;BME280;8798;51.938;4.348;2023-06-14T05:37:28;101243.91;;;19.33;51.47
17362;BME280;8798;51.938;4.348;2023-06-14T05:39:59;101255.47;;;19.36;51.24
17362;BME280;8798;51.938;4.348;2023-06-14T05:42:28;101279.63;;;19.39;51.17
17362;BME280;8798;51.938;4.348;2023-06-14T05:44:56;101290.94;;;19.42;51.11
17362;BME280;8798;51.938;4.348;2023-06-14T05:47:24;101309.59;;;19.45;51.20
17362;BME280;8798;51.938;4.348;2023-06-14T05:50:11;101326.44;;;19.49;51.33
17362;BME280;8798;51.938;4.348;2023-06-14T05:52:39;101342.38;;;19.52;51.12
17362;BME280;8798;51.938;4.348;2023-06-14T05:55:08;101360.03;;;19.56;51.27
17362;BME280;8798;51.938;4.348;2023-06-14T05:57:40;101373.03;;;19.61;51.08
17362;BME280;8798;51.938;4.348;2023-06-14T06:00:11;101398.03;;;19.64;51.20
17362;BME280;8798;51.938;4.348;2023-06-14T06:02:41;101415.50;;;19.70;51.09
17362;BME280;8798;51.938;4.348;2023-06-14T06:05:19;101440.50;;;19.73;50.94
17362;BME280;8798;51.938;4.348;2023-06-14T06:07:50;101447.22;;;19.77;51.17
17362;BME280;8798;51.938;4.348;2023-06-14T06:10:18;101463.22;;;19.81;51.03
17362;BME280;8798;51.938;4.348;2023-06-14T06:12:46;101488.00;;;19.86;51.00
17362;BME280;8798;51.938;4.348;2023-06-14T06:15:16;101509.19;;;19.90;50.96
17362;BME280;8798;51.938;4.348;2023-06-14T06:17:50;101531.31;;;19.95;50.86
17362;BME280;8798;51.938;4.348;2023-06-14T06:20:29;101545.19;;;20.01;50.88
17362;BME280;8798;51.938;4.348;2023-06-14T06:22:59;101560.09;;;20.05;50.61
17362;BME280;8798;51.938;4.348;2023-06-14T06:25:28;101576.06;;;20.08;50.71
17362;BME280;8798;51.938;4.348;2023-06-14T06:27:58;101595.44;;;20.13;50.77
17362;BME280;8798;51.938;4.348;2023-06-14T06:30:26;101613.94;;;20.17;50.91
17362;BME280;8798;51.938;4.348;2023-06-14T06:32:59;101625.97;;;20.23;50.52
17362;BME280;8798;51.938;4.348;2023-06-14T06:35:28;101654.34;;;20.29;50.68
17362;BME280;8798;51.938;4.348;2023-06-14T06:37:59;101671.81;;;20.34;50.63
17362;BME280;8798;51.938;4.348;2023-06-14T06:40:29;101691.19;;;20.39;50.54
17362;BME280;8798;51.938;4.348;2023-06-14T06:42:59;101714.16;;;20.45;50.37
17362;BME280;8798;51.938;4.348;2023-06-14T06:45:29;101736.84;;;20.52;50.48
17362;BME280;8798;51.938;4.348;2023-06-14T06:47:58;101760.53;;;20.60;50.36
17362;BME280;8798;51.938;4.348;2023-06-14T06:50:31;101786.19;;;20.66;50.26
17362;BME280;8798;51.938;4.348;2023-06-14T06:52:59;101791.25;;;20.69;50.17
17362;BME280;8798;51.938;4.348;2023-06-14T06:55:28;101813.34;;;20.74;50.23
17362;BME280;8798;51.938;4.348;2023-06-14T06:57:57;101836.31;;;20.79;50.34
17362;BME280;8798;51.938;4.348;2023-06-14T07:00:26;101847.31;;;20.86;50.23
17362;BME280;8798;51.938;4.348;2023-06-14T07:02:59;101859.53;;;20.90;50.25
17362;BME280;8798;51.938;4.348;2023-06-14T07:05:28;101876.38;;;20.94;49.88
17362;BME280;8798;51.938;4.348;2023-06-14T07:08:00;101882.31;;;20.97;50.08
17362;BME280;8798;51.938;4.348;2023-06-14T07:10:28;101894.53;;;21.01;49.80
17362;BME280;8798;51.938;4.348;2023-06-14T07:12:55;101911.19;;;21.07;49.78
17362;BME280;8798;51.938;4.348;2023-06-14T07:15:23;101920.50;;;21.12;49.46
17362;BME280;8798;51.938;4.348;2023-06-14T07:17:59;101921.34;;;21.13;49.95
17362;BME280;8798;51.938;4.348;2023-06-14T07:20:30;101923.69;;;21.16;49.73
17362;BME280;8798;51.938;4.348;2023-06-14T07:23:01;101940.34;;;21.21;49.49
17362;BME280;8798;51.938;4.348;2023-06-14T07:25:29;101955.97;;;21.27;49.30
17362;BME280;8798;51.938;4.348;2023-06-14T07:27:59;101979.78;;;21.33;49.25
17362;BME280;8798;51.938;4.348;2023-06-14T07:30:27;101999.88;;;21.40;49.27
17362;BME280;8798;51.938;4.348;2023-06-14T07:32:56;102021.41;;;21.50;49.04
17362;BME280;8798;51.938;4.348;2023-06-14T07:35:24;102064.00;;;21.59;49.29
17362;BME280;8798;51.938;4.348;2023-06-14T07:37:52;102079.63;;;21.65;48.76
17362;BME280;8798;51.938;4.348;2023-06-14T07:40:22;102087.25;;;21.70;48.94
17362;BME280;8798;51.938;4.348;2023-06-14T07:42:50;102106.47;;;21.77;48.65
17362;BME280;8798;51.938;4.348;2023-06-14T07:45:18;102123.81;;;21.84;48.58
17362;BME280;8798;51.938;4.348;2023-06-14T07:47:46;102140.28;;;21.90;48.62
17362;BME280;8798;51.938;4.348;2023-06-14T07:50:14;102147.06;;;21.95;48.63
17362;BME280;8798;51.938;4.348;2023-06-14T07:52:45;102159.31;;;21.99;48.46
17362;BME280;8798;51.938;4.348;2023-06-14T07:55:13;102174.97;;;22.05;48.45
17362;BME280;8798;51.938;4.348;2023-06-14T07:57:51;102194.19;;;22.11;48.20
17362;BME280;8798;51.938;4.348;2023-06-14T08:00:20;102223.81;;;22.23;48.51
17362;BME280;8798;51.938;4.348;2023-06-14T08:02:48;102249.38;;;22.30;48.55
17362;BME280;8798;51.938;4.348;2023-06-14T08:05:21;102263.13;;;22.37;47.90
17362;BME280;8798;51.938;4.348;2023-06-14T08:07:49;102275.19;;;22.42;48.37
17362;BME280;8798;51.938;4.348;2023-06-14T08:10:17;102290.66;;;22.50;48.04
17362;BME280;8798;51.938;4.348;2023-06-14T08:12:46;102300.19;;;22.54;48.12
17362;BME280;8798;51.938;4.348;2023-06-14T08:15:20;102299.78;;;22.57;47.50
17362;BME280;8798;51.938;4.348;2023-06-14T08:17:51;102306.41;;;22.63;47.93
17362;BME280;8798;51.938;4.348;2023-06-14T08:20:19;102330.91;;;22.71;47.75
17362;BME280;8798;51.938;4.348;2023-06-14T08:22:47;102355.25;;;22.81;47.30
17362;BME280;8798;51.938;4.348;2023-06-14T08:25:31;102374.28;;;22.89;47.74
17362;BME280;8798;51.938;4.348;2023-06-14T08:27:59;102380.69;;;22.96;47.67
17362;BME280;8798;51.938;4.348;2023-06-14T08:30:31;102404.41;;;23.04;47.21
17362;BME280;8798;51.938;4.348;2023-06-14T08:32:59;102420.09;;;23.10;47.23
17362;BME280;8798;51.938;4.348;2023-06-14T08:35:42;102432.81;;;23.17;46.73
17362;BME280;8798;51.938;4.348;2023-06-14T08:38:10;102438.34;;;23.24;46.97
17362;BME280;8798;51.938;4.348;2023-06-14T08:40:42;102454.88;;;23.31;46.71
17362;BME280;8798;51.938;4.348;2023-06-14T08:43:10;102455.34;;;23.34;46.66
17362;BME280;8798;51.938;4.348;2023-06-14T08:45:41;102469.09;;;23.41;46.24
17362;BME280;8798;51.938;4.348;2023-06-14T08:48:09;102479.97;;;23.49;46.04
17362;BME280;8798;51.938;4.348;2023-06-14T08:50:40;102487.56;;;23.54;46.10
17362;BME280;8798;51.938;4.348;2023-06-14T08:53:11;102495.22;;;23.58;45.86
17362;BME280;8798;51.938;4.348;2023-06-14T08:55:46;102491.03;;;23.63;46.06
17362;BME280;8798;51.938;4.348;2023-06-14T08:58:15;102488.53;;;23.68;45.84
17362;BME280;8798;51.938;4.348;2023-06-14T09:00:50;102505.94;;;23.75;45.73
17362;BME280;8798;51.938;4.348;2023-06-14T09:03:20;102525.00;;;23.83;45.82
17362;BME280;8798;51.938;4.348;2023-06-14T09:05:51;102552.97;;;23.93;45.51
17362;BME280;8798;51.938;4.348;2023-06-14T09:08:21;102563.59;;;24.03;44.99
17362;BME280;8798;51.938;4.348;2023-06-14T09:10:50;102588.19;;;24.11;45.66
17362;BME280;8798;51.938;4.348;2023-06-14T09:13:18;102597.34;;;24.18;44.89
17362;BME280;8798;51.938;4.348;2023-06-14T09:15:50;102613.84;;;24.25;45.03
17362;BME280;8798;51.938;4.348;2023-06-14T09:18:19;102611.34;;;24.30;44.99
17362;BME280;8798;51.938;4.348;2023-06-14T09:20:53;102615.22;;;24.36;44.29
17362;BME280;8798;51.938;4.348;2023-06-14T09:23:33;102604.00;;;24.37;44.67
17362;BME280;8798;51.938;4.348;2023-06-14T09:26:07;102607.66;;;24.44;44.64
17362;BME280;8798;51.938;4.348;2023-06-14T09:28:41;102635.66;;;24.55;44.12
17362;BME280;8798;51.938;4.348;2023-06-14T09:31:12;102650.31;;;24.62;44.33
17362;BME280;8798;51.938;4.348;2023-06-14T09:33:43;102653.28;;;24.67;44.20
17362;BME280;8798;51.938;4.348;2023-06-14T09:36:17;102665.19;;;24.74;43.70
17362;BME280;8798;51.938;4.348;2023-06-14T09:38:56;102677.75;;;24.83;43.85
17362;BME280;8798;51.938;4.348;2023-06-14T09:41:31;102669.91;;;24.87;43.51
17362;BME280;8798;51.938;4.348;2023-06-14T09:44:00;102655.97;;;24.88;43.33
17362;BME280;8798;51.938;4.348;2023-06-14T09:46:44;102645.63;;;24.91;43.40
17362;BME280;8798;51.938;4.348;2023-06-14T09:49:15;102646.06;;;24.94;43.38
17362;BME280;8798;51.938;4.348;2023-06-14T09:51:46;102658.78;;;25.02;43.08
17362;BME280;8798;51.938;4.348;2023-06-14T09:54:22;102667.94;;;25.09;42.87
17362;BME280;8798;51.938;4.348;2023-06-14T09:57:00;102671.75;;;25.15;42.49
17362;BME280;8798;51.938;4.348;2023-06-14T09:59:31;102677.34;;;25.21;42.58
17362;BME280;8798;51.938;4.348;2023-06-14T10:02:15;102701.53;;;25.33;42.59
17362;BME280;8798;51.938;4.348;2023-06-14T10:04:55;102729.28;;;25.44;42.69
17362;BME280;8798;51.938;4.348;2023-06-14T10:07:30;102740.16;;;25.52;42.05
17362;BME280;8798;51.938;4.348;2023-06-14T10:10:00;102732.31;;;25.56;41.88
17362;BME280;8798;51.938;4.348;2023-06-14T10:12:30;102724.28;;;25.61;41.87
17362;BME280;8798;51.938;4.348;2023-06-14T10:14:59;102731.75;;;25.67;41.94
17362;BME280;8798;51.938;4.348;2023-06-14T10:17:38;102729.41;;;25.71;41.49
17362;BME280;8798;51.938;4.348;2023-06-14T10:20:30;102726.03;;;25.75;41.49
17362;BME280;8798;51.938;4.348;2023-06-14T10:23:03;102718.22;;;25.79;41.27
17362;BME280;8798;51.938;4.348;2023-06-14T10:25:35;102717.56;;;25.84;41.42
17362;BME280;8798;51.938;4.348;2023-06-14T10:28:23;102719.56;;;25.90;40.88
17362;BME280;8798;51.938;4.348;2023-06-14T10:31:04;102703.66;;;25.92;40.59
17362;BME280;8798;51.938;4.348;2023-06-14T10:33:34;102696.06;;;25.94;40.22
17362;BME280;8798;51.938;4.348;2023-06-14T10:36:28;102715.78;;;26.04;40.18
17362;BME280;8798;51.938;4.348;2023-06-14T10:39:01;102708.75;;;26.08;39.92
17362;BME280;8798;51.938;4.348;2023-06-14T10:41:37;102706.88;;;26.15;39.60
17362;BME280;8798;51.938;4.348;2023-06-14T10:44:33;102696.28;;;26.19;39.84
17362;BME280;8798;51.938;4.348;2023-06-14T10:47:23;102713.69;;;26.26;39.30
17362;BME280;8798;51.938;4.348;2023-06-14T10:49:54;102702.22;;;26.29;39.60
17362;BME280;8798;51.938;4.348;2023-06-14T10:52:28;102693.34;;;26.34;39.13
17362;BME280;8798;51.938;4.348;2023-06-14T10:55:04;102710.50;;;26.43;38.87
17362;BME280;8798;51.938;4.348;2023-06-14T10:57:33;102694.78;;;26.43;38.52
17362;BME280;8798;51.938;4.348;2023-06-14T11:00:21;102686.97;;;26.47;38.37
17362;BME280;8798;51.938;4.348;2023-06-14T11:05:53;102691.00;;;26.57;38.26
17362;BME280;8798;51.938;4.348;2023-06-14T11:11:32;102680.63;;;26.66;37.53
17362;BME280;8798;51.938;4.348;2023-06-14T11:14:04;102659.41;;;26.67;37.52
17362;BME280;8798;51.938;4.348;2023-06-14T11:16:32;102672.09;;;26.74;37.50
17362;BME280;8798;51.938;4.348;2023-06-14T11:19:03;102681.84;;;26.84;37.44
17362;BME280;8798;51.938;4.348;2023-06-14T11:21:41;102693.94;;;26.89;37.33
17362;BME280;8798;51.938;4.348;2023-06-14T11:24:11;102686.94;;;26.93;37.24
17362;BME280;8798;51.938;4.348;2023-06-14T11:26:40;102699.66;;;27.01;37.19
17362;BME280;8798;51.938;4.348;2023-06-14T11:29:10;102710.66;;;27.08;36.95
17362;BME280;8798;51.938;4.348;2023-06-14T11:31:43;102701.97;;;27.11;36.35
17362;BME280;8798;51.938;4.348;2023-06-14T11:34:17;102691.56;;;27.13;36.41
17362;BME280;8798;51.938;4.348;2023-06-14T11:36:50;102670.94;;;27.15;36.34
17362;BME280;8798;51.938;4.348;2023-06-14T11:39:24;102694.72;;;27.23;35.99
17362;BME280;8798;51.938;4.348;2023-06-14T11:42:01;102707.19;;;27.32;35.87
17362;BME280;8798;51.938;4.348;2023-06-14T11:44:31;102730.75;;;27.41;35.67
17362;BME280;8798;51.938;4.348;2023-06-14T11:47:03;102724.38;;;27.48;35.54
17362;BME280;8798;51.938;4.348;2023-06-14T11:49:40;102721.16;;;27.51;35.41
17362;BME280;8798;51.938;4.348;2023-06-14T11:52:10;102708.19;;;27.51;35.74
17362;BME280;8798;51.938;4.348;2023-06-14T11:54:40;102680.78;;;27.50;35.31
17362;BME280;8798;51.938;4.348;2023-06-14T11:57:10;102666.97;;;27.50;34.99
17362;BME280;8798;51.938;4.348;2023-06-14T11:59:38;102688.84;;;27.58;35.61
17362;BME280;8798;51.938;4.348;2023-06-14T12:02:08;102704.94;;;27.67;35.55
17362;BME280;8798;51.938;4.348;2023-06-14T12:04:40;102722.94;;;27.77;35.55
17362;BME280;8798;51.938;4.348;2023-06-14T12:07:11;102724.00;;;27.82;34.57
17362;BME280;8798;51.938;4.348;2023-06-14T12:10:04;102729.47;;;27.89;35.22
17362;BME280;8798;51.938;4.348;2023-06-14T12:12:36;102739.44;;;27.97;34.52
17362;BME280;8798;51.938;4.348;2023-06-14T12:15:07;102742.41;;;28.02;35.23
17362;BME280;8798;51.938;4.348;2023-06-14T12:17:39;102717.28;;;28.03;34.91
17362;BME280;8798;51.938;4.348;2023-06-14T12:20:12;102715.78;;;28.07;35.00
17362;BME280;8798;51.938;4.348;2023-06-14T12:22:55;102708.94;;;28.10;34.87
17362;BME280;8798;51.938;4.348;2023-06-14T12:25:27;102668.16;;;28.05;34.02
17362;BME280;8798;51.938;4.348;2023-06-14T12:28:04;102647.72;;;28.06;34.45
17362;BME280;8798;51.938;4.348;2023-06-14T12:30:33;102650.91;;;28.10;34.09
17362;BME280;8798;51.938;4.348;2023-06-14T12:33:09;102661.91;;;28.17;34.08
17362;BME280;8798;51.938;4.348;2023-06-14T12:35:41;102686.06;;;28.28;33.66
17362;BME280;8798;51.938;4.348;2023-06-14T12:38:10;102655.88;;;28.26;34.06
17362;BME280;8798;51.938;4.348;2023-06-14T12:40:39;102607.22;;;28.19;33.46
17362;BME280;8798;51.938;4.348;2023-06-14T12:43:08;102605.94;;;28.21;33.40
17362;BME280;8798;51.938;4.348;2023-06-14T12:45:36;102613.31;;;28.27;33.50
17362;BME280;8798;51.938;4.348;2023-06-14T12:48:08;102612.41;;;28.34;33.00
17362;BME280;8798;51.938;4.348;2023-06-14T12:50:36;102590.28;;;28.34;33.29
17362;BME280;8798;51.938;4.348;2023-06-14T12:53:05;102598.53;;;28.40;33.02
17362;BME280;8798;51.938;4.348;2023-06-14T12:55:35;102633.75;;;28.51;32.62
17362;BME280;8798;51.938;4.348;2023-06-14T12:58:03;102639.84;;;28.60;33.21
17362;BME280;8798;51.938;4.348;2023-06-14T13:00:32;102658.31;;;28.66;32.31
17362;BME280;8798;51.938;4.348;2023-06-14T13:03:01;102678.81;;;28.77;33.12
17362;BME280;8798;51.938;4.348;2023-06-14T13:05:30;102672.81;;;28.80;32.98
17362;BME280;8798;51.938;4.348;2023-06-14T13:08:00;102667.69;;;28.84;32.58
17362;BME280;8798;51.938;4.348;2023-06-14T13:10:28;102687.59;;;28.92;32.75
17362;BME280;8798;51.938;4.348;2023-06-14T13:12:58;102701.16;;;29.01;32.57
17362;BME280;8798;51.938;4.348;2023-06-14T13:15:27;102699.59;;;29.05;32.31
17362;BME280;8798;51.938;4.348;2023-06-14T13:17:57;102674.94;;;29.03;32.22
17362;BME280;8798;51.938;4.348;2023-06-14T13:20:26;102662.56;;;29.06;32.00
17362;BME280;8798;51.938;4.348;2023-06-14T13:22:54;102664.03;;;29.08;31.92
17362;BME280;8798;51.938;4.348;2023-06-14T13:25:22;102692.63;;;29.21;31.81
17362;BME280;8798;51.938;4.348;2023-06-14T13:27:52;102696.41;;;29.26;31.66